createdAt,value
2023-04-16T00:02:07.956Z,1.40
2023-04-16T00:04:36.137Z,1.75
2023-04-16T00:07:04.356Z,1.70
2023-04-16T00:09:32.358Z,1.25
2023-04-16T00:12:00.761Z,1.80
2023-04-16T00:14:28.842Z,1.52
2023-04-16T00:16:56.876Z,1.60
2023-04-16T00:19:25.035Z,1.42
2023-04-16T00:21:54.151Z,1.38
2023-04-16T00:24:22.178Z,1.73
2023-04-16T00:26:50.251Z,1.88
2023-04-16T00:29:18.257Z,1.15
2023-04-16T00:31:46.926Z,1.50
2023-04-16T00:34:15.010Z,1.40
2023-04-16T00:36:43.006Z,2.05
2023-04-16T00:39:11.210Z,1.48
2023-04-16T00:41:39.441Z,1.55
2023-04-16T00:44:07.390Z,1.75
2023-04-16T00:46:37.484Z,1.50
2023-04-16T00:49:05.844Z,1.48
2023-04-16T00:51:35.805Z,1.73
2023-04-16T00:54:04.479Z,2.10
2023-04-16T00:56:33.620Z,1.40
2023-04-16T00:59:01.897Z,1.55
2023-04-16T01:01:30.062Z,1.48
2023-04-16T01:03:58.406Z,1.67
2023-04-16T01:06:28.528Z,1.65
2023-04-16T01:08:56.518Z,1.30
2023-04-16T01:11:24.706Z,1.50
2023-04-16T01:13:52.779Z,1.40
2023-04-16T01:16:21.269Z,1.10
2023-04-16T01:18:49.345Z,1.13
2023-04-16T01:21:17.453Z,1.30
2023-04-16T01:23:45.548Z,1.70
2023-04-16T01:26:13.651Z,1.35
2023-04-16T01:28:43.755Z,1.23
2023-04-16T01:31:11.921Z,1.75
2023-04-16T01:34:06.442Z,1.88
2023-04-16T01:36:35.905Z,1.65
2023-04-16T01:39:04.669Z,2.47
2023-04-16T01:41:32.788Z,1.50
2023-04-16T01:44:00.989Z,2.03
2023-04-16T01:46:49.482Z,2.28
2023-04-16T01:49:17.578Z,2.13
2023-04-16T01:51:45.739Z,2.15
2023-04-16T01:54:13.835Z,2.17
2023-04-16T01:56:41.947Z,1.80
2023-04-16T01:59:10.369Z,1.90
2023-04-16T02:01:42.699Z,2.22
2023-04-16T02:04:12.135Z,2.45
2023-04-16T02:06:40.753Z,2.30
2023-04-16T02:11:54.466Z,1.63
2023-04-16T02:17:12.999Z,2.67
2023-04-16T02:19:42.584Z,2.65
2023-04-16T02:22:11.463Z,2.40
2023-04-16T02:24:39.567Z,2.13
2023-04-16T02:27:10.741Z,2.22
2023-04-16T02:29:38.850Z,2.70
2023-04-16T02:32:13.643Z,2.22
2023-04-16T02:34:44.888Z,1.83
2023-04-16T02:37:15.559Z,1.98
2023-04-16T02:39:44.215Z,1.80
2023-04-16T02:42:12.184Z,1.65
2023-04-16T02:44:40.703Z,1.83
2023-04-16T02:47:08.764Z,1.65
2023-04-16T02:49:36.796Z,1.60
2023-04-16T02:52:05.009Z,1.90
2023-04-16T02:54:33.027Z,2.30
2023-04-16T02:57:02.348Z,2.13
2023-04-16T02:59:49.051Z,1.88
2023-04-16T03:02:17.420Z,1.92
2023-04-16T03:05:04.407Z,2.72
2023-04-16T03:07:32.581Z,1.90
2023-04-16T03:10:00.648Z,2.40
2023-04-16T03:12:28.595Z,1.88
2023-04-16T03:14:57.098Z,2.45
2023-04-16T03:17:25.188Z,2.20
2023-04-16T03:19:53.354Z,2.25
2023-04-16T03:22:21.469Z,2.10
2023-04-16T03:24:49.519Z,2.15
2023-04-16T03:27:17.509Z,2.00
2023-04-16T03:29:46.750Z,2.25
2023-04-16T03:32:14.853Z,2.05
2023-04-16T03:35:01.468Z,2.40
2023-04-16T03:37:48.242Z,2.45
2023-04-16T03:40:16.401Z,2.40
2023-04-16T03:42:44.483Z,1.80
2023-04-16T03:45:12.590Z,1.98
2023-04-16T03:47:40.904Z,2.03
2023-04-16T03:50:11.847Z,2.33
2023-04-16T03:52:41.175Z,2.60
2023-04-16T03:55:09.444Z,2.03
2023-04-16T03:57:37.531Z,2.58
2023-04-16T04:00:24.138Z,2.40
2023-04-16T04:03:01.351Z,2.90
2023-04-16T04:05:29.933Z,2.85
2023-04-16T04:08:00.134Z,2.80
2023-04-16T04:10:29.460Z,2.63
2023-04-16T04:12:58.325Z,2.35
2023-04-16T04:15:26.717Z,2.85
2023-04-16T04:17:55.741Z,2.35
2023-04-16T04:20:24.882Z,2.97
2023-04-16T04:22:54.040Z,3.80
2023-04-16T04:25:25.271Z,3.13
2023-04-16T04:27:53.381Z,2.83
2023-04-16T04:30:21.467Z,3.67
2023-04-16T04:32:49.517Z,4.32
2023-04-16T04:35:18.235Z,4.47
2023-04-16T04:37:46.409Z,4.43
2023-04-16T04:40:20.374Z,4.50
2023-04-16T04:43:07.001Z,4.95
2023-04-16T04:45:35.150Z,5.75
2023-04-16T04:48:03.392Z,4.88
2023-04-16T04:50:31.553Z,5.82
2023-04-16T04:52:59.549Z,4.68
2023-04-16T04:55:28.176Z,5.28
2023-04-16T04:57:56.557Z,5.82
2023-04-16T05:00:25.124Z,5.63
2023-04-16T05:02:55.814Z,5.53
2023-04-16T05:05:23.955Z,5.28
2023-04-16T05:07:52.079Z,5.75
2023-04-16T05:10:20.312Z,5.28
2023-04-16T05:12:49.091Z,5.45
2023-04-16T05:15:17.660Z,5.43
2023-04-16T05:17:45.810Z,4.43
2023-04-16T05:20:13.881Z,5.13
2023-04-16T05:22:41.892Z,5.15
2023-04-16T05:25:10.338Z,5.07
2023-04-16T05:27:38.811Z,5.25
2023-04-16T05:30:07.561Z,4.90
2023-04-16T05:32:35.920Z,4.60
2023-04-16T05:35:04.216Z,5.43
2023-04-16T05:37:32.372Z,5.65
2023-04-16T05:40:00.571Z,4.38
2023-04-16T05:42:31.382Z,4.40
2023-04-16T05:44:59.481Z,4.93
2023-04-16T05:47:27.639Z,5.63
2023-04-16T05:49:56.288Z,5.35
2023-04-16T05:52:24.519Z,5.50
2023-04-16T05:54:52.586Z,4.57
2023-04-16T05:57:20.777Z,4.75
2023-04-16T05:59:48.735Z,4.85
2023-04-16T06:02:16.860Z,5.13
2023-04-16T06:04:44.925Z,4.82
2023-04-16T06:07:12.974Z,5.85
2023-04-16T06:09:41.259Z,5.20
2023-04-16T06:12:09.942Z,5.13
2023-04-16T06:14:37.916Z,5.38
2023-04-16T06:17:06.045Z,5.32
2023-04-16T06:19:34.000Z,5.07
2023-04-16T06:22:02.045Z,6.10
2023-04-16T06:24:30.080Z,5.60
2023-04-16T06:26:58.421Z,5.57
2023-04-16T06:29:37.055Z,6.40
2023-04-16T06:32:09.038Z,5.68
2023-04-16T06:34:38.681Z,5.50
2023-04-16T06:37:09.875Z,4.97
2023-04-16T06:39:38.686Z,4.70
2023-04-16T06:42:06.824Z,4.57
2023-04-16T06:44:53.721Z,3.72
2023-04-16T06:47:21.808Z,4.30
2023-04-16T06:49:49.901Z,4.68
2023-04-16T06:52:36.782Z,4.30
2023-04-16T06:55:05.311Z,4.75
2023-04-16T07:00:19.035Z,4.28
2023-04-16T07:02:47.394Z,4.32
2023-04-16T07:05:15.480Z,4.60
2023-04-16T07:07:43.550Z,4.70
2023-04-16T07:10:11.682Z,4.75
2023-04-16T07:12:58.733Z,3.80
2023-04-16T07:15:26.910Z,4.10
2023-04-16T07:17:55.073Z,3.70
2023-04-16T07:20:23.076Z,4.00
2023-04-16T07:22:51.139Z,3.72
2023-04-16T07:25:19.116Z,3.55
2023-04-16T07:27:47.149Z,3.80
2023-04-16T07:30:15.494Z,3.67
2023-04-16T07:32:43.714Z,4.00
2023-04-16T07:35:11.788Z,4.22
2023-04-16T07:37:39.813Z,4.53
2023-04-16T07:40:08.741Z,4.22
2023-04-16T07:42:37.068Z,4.20
2023-04-16T07:45:05.523Z,4.15
2023-04-16T07:47:33.662Z,4.00
2023-04-16T07:50:01.786Z,4.57
2023-04-16T07:52:29.897Z,3.58
2023-04-16T07:54:57.815Z,4.97
2023-04-16T07:57:26.131Z,5.15
2023-04-16T07:59:54.174Z,4.03
2023-04-16T08:02:22.362Z,3.97
2023-04-16T08:04:50.674Z,3.35
2023-04-16T08:07:19.052Z,3.05
2023-04-16T08:12:37.922Z,2.80
2023-04-16T08:15:06.813Z,2.70
2023-04-16T08:17:35.271Z,3.30
2023-04-16T08:20:03.762Z,2.13
2023-04-16T08:22:31.956Z,2.53
2023-04-16T08:25:00.145Z,2.78
2023-04-16T08:27:28.266Z,2.35
2023-04-16T08:29:56.383Z,2.00
2023-04-16T08:32:24.503Z,2.08
2023-04-16T08:34:52.572Z,2.33
2023-04-16T08:37:20.876Z,2.00
2023-04-16T08:39:48.859Z,1.58
2023-04-16T08:42:27.629Z,2.40
2023-04-16T08:45:21.071Z,2.22
2023-04-16T08:47:51.522Z,2.30
2023-04-16T08:50:26.945Z,2.50
2023-04-16T08:53:18.900Z,2.03
2023-04-16T08:55:49.219Z,1.95
2023-04-16T08:58:23.120Z,2.55
2023-04-16T09:00:51.942Z,2.00
2023-04-16T09:03:22.048Z,2.13
2023-04-16T09:06:10.389Z,2.15
2023-04-16T09:08:39.254Z,1.88
2023-04-16T09:11:07.448Z,2.05
2023-04-16T09:13:35.602Z,2.22
2023-04-16T09:16:04.649Z,2.65
2023-04-16T09:18:32.931Z,2.13
2023-04-16T09:21:01.280Z,2.30
2023-04-16T09:23:30.075Z,1.80
2023-04-16T09:26:00.158Z,2.13
2023-04-16T09:28:46.189Z,1.67
2023-04-16T09:31:16.255Z,1.75
2023-04-16T09:34:00.774Z,1.58
2023-04-16T09:36:29.261Z,1.92
2023-04-16T09:38:58.427Z,1.88
2023-04-16T09:41:31.029Z,2.35
2023-04-16T09:44:07.420Z,1.75
2023-04-16T09:46:37.082Z,1.92
2023-04-16T09:49:10.225Z,2.20
2023-04-16T09:51:41.673Z,1.80
2023-04-16T09:54:10.174Z,1.60
2023-04-16T09:56:46.174Z,1.52
2023-04-16T09:59:19.469Z,1.30
2023-04-16T10:01:49.996Z,1.27
2023-04-16T10:04:18.302Z,1.55
2023-04-16T10:07:04.549Z,1.55
2023-04-16T10:09:37.320Z,1.83
2023-04-16T10:12:24.003Z,1.52
2023-04-16T10:14:52.137Z,1.38
2023-04-16T10:17:21.452Z,1.42
2023-04-16T10:19:50.983Z,2.03
2023-04-16T10:22:19.068Z,1.60
2023-04-16T10:24:47.479Z,2.03
2023-04-16T10:27:16.897Z,1.25
2023-04-16T10:29:45.419Z,1.55
2023-04-16T10:32:14.362Z,2.08
2023-04-16T10:34:42.746Z,1.88
2023-04-16T10:37:10.962Z,1.77
2023-04-16T10:39:38.936Z,1.77
2023-04-16T10:42:12.236Z,1.55
2023-04-16T10:44:44.443Z,2.50
2023-04-16T10:47:14.484Z,1.52
2023-04-16T10:49:44.118Z,1.95
2023-04-16T10:52:31.439Z,1.83
2023-04-16T10:55:01.267Z,1.90
2023-04-16T10:57:29.881Z,2.15
2023-04-16T10:59:59.567Z,1.40
2023-04-16T11:02:30.180Z,2.13
2023-04-16T11:10:05.952Z,1.40
2023-04-16T11:12:38.671Z,1.67
2023-04-16T11:15:14.513Z,1.55
2023-04-16T11:17:47.783Z,1.73
2023-04-16T11:20:21.914Z,1.60
2023-04-16T11:22:52.018Z,1.80
2023-04-16T11:25:25.000Z,1.80
2023-04-16T11:30:41.747Z,1.45
2023-04-16T11:33:14.211Z,1.83
2023-04-16T11:35:43.642Z,1.70
2023-04-16T11:38:11.795Z,1.52
2023-04-16T11:40:39.940Z,1.55
2023-04-16T11:43:16.075Z,2.33
2023-04-16T11:45:56.546Z,1.90
2023-04-16T11:48:24.768Z,1.73
2023-04-16T11:50:59.570Z,2.30
2023-04-16T11:53:27.774Z,2.00
2023-04-16T11:55:55.962Z,1.50
2023-04-16T12:01:10.390Z,2.03
2023-04-16T12:04:03.068Z,2.17
2023-04-16T12:06:32.676Z,2.22
2023-04-16T12:09:01.733Z,2.17
2023-04-16T12:11:40.613Z,1.98
2023-04-16T12:14:09.435Z,1.45
2023-04-16T12:16:37.700Z,1.80
2023-04-16T12:19:06.277Z,1.45
2023-04-16T12:21:42.083Z,1.60
2023-04-16T12:24:13.698Z,4.75
2023-04-16T12:26:46.904Z,3.80
2023-04-16T12:29:26.248Z,1.98
2023-04-16T12:31:54.853Z,3.30
2023-04-16T12:37:11.195Z,3.85
2023-04-16T12:39:39.220Z,3.38
2023-04-16T12:42:11.514Z,3.13
2023-04-16T12:44:39.598Z,1.85
2023-04-16T12:47:07.640Z,2.78
2023-04-16T12:49:36.667Z,1.52
2023-04-16T12:52:05.098Z,1.60
2023-04-16T12:54:33.401Z,1.70
2023-04-16T12:57:01.320Z,1.73
2023-04-16T12:59:29.324Z,2.33
2023-04-16T13:01:57.522Z,2.40
2023-04-16T13:04:26.156Z,1.60
2023-04-16T13:06:54.267Z,1.40
2023-04-16T13:09:40.862Z,2.20
2023-04-16T13:12:08.834Z,1.70
2023-04-16T13:14:37.297Z,1.40
2023-04-16T13:17:05.364Z,1.58
2023-04-16T13:19:33.348Z,1.45
2023-04-16T13:22:01.471Z,2.15
2023-04-16T13:24:30.813Z,1.55
2023-04-16T13:26:59.650Z,1.65
2023-04-16T13:29:27.778Z,2.05
2023-04-16T13:31:55.991Z,1.65
2023-04-16T13:34:24.075Z,1.48
2023-04-16T13:36:52.091Z,1.77
2023-04-16T13:39:20.152Z,1.73
2023-04-16T13:41:49.320Z,2.30
2023-04-16T13:44:17.453Z,1.60
2023-04-16T13:46:47.992Z,1.70
2023-04-16T13:49:16.515Z,1.40
2023-04-16T13:51:47.281Z,1.20
2023-04-16T13:54:15.355Z,1.20
2023-04-16T13:56:43.454Z,1.45
2023-04-16T13:59:11.850Z,1.90
2023-04-16T14:01:40.551Z,3.00
2023-04-16T14:04:08.611Z,1.63
2023-04-16T14:06:55.177Z,1.95
2023-04-16T14:09:23.407Z,1.88
2023-04-16T14:11:51.710Z,1.92
2023-04-16T14:14:19.822Z,1.95
2023-04-16T14:16:48.036Z,1.60
2023-04-16T14:19:16.267Z,1.67
2023-04-16T14:21:44.427Z,1.60
2023-04-16T14:24:12.579Z,2.00
2023-04-16T14:26:41.032Z,2.38
2023-04-16T14:29:09.336Z,1.45
2023-04-16T14:31:37.860Z,2.13
2023-04-16T14:34:05.892Z,1.60
2023-04-16T14:36:34.031Z,1.75
2023-04-16T14:39:02.115Z,1.60
2023-04-16T14:41:31.087Z,1.70
2023-04-16T14:43:59.958Z,1.70
2023-04-16T14:46:46.758Z,2.45
2023-04-16T14:49:15.162Z,1.30
2023-04-16T14:51:45.362Z,1.58
2023-04-16T14:54:13.467Z,2.67
2023-04-16T14:56:41.961Z,1.55
2023-04-16T14:59:10.179Z,1.48
2023-04-16T15:01:42.324Z,1.70
2023-04-16T15:04:10.499Z,1.35
2023-04-16T15:06:38.764Z,1.73
2023-04-16T15:09:08.446Z,2.15
2023-04-16T15:11:36.556Z,1.40
2023-04-16T15:14:04.536Z,1.90
2023-04-16T15:16:32.905Z,1.95
2023-04-16T15:19:01.981Z,1.63
2023-04-16T15:24:35.808Z,2.20
2023-04-16T15:27:06.207Z,1.50
2023-04-16T15:29:34.293Z,1.75
2023-04-16T15:34:48.005Z,1.73
2023-04-16T15:37:16.467Z,1.42
2023-04-16T15:39:44.868Z,1.80
2023-04-16T15:42:13.446Z,2.30
2023-04-16T15:44:41.459Z,1.50
2023-04-16T15:47:09.560Z,1.77
2023-04-16T15:49:37.730Z,1.95
2023-04-16T15:52:05.972Z,1.70
2023-04-16T15:54:34.129Z,1.90
2023-04-16T15:57:02.308Z,1.55
2023-04-16T15:59:30.355Z,1.88
2023-04-16T16:01:58.533Z,1.65
2023-04-16T16:04:28.554Z,2.00
2023-04-16T16:06:57.166Z,1.52
2023-04-16T16:09:28.265Z,1.73
2023-04-16T16:11:58.518Z,1.90
2023-04-16T16:14:27.217Z,1.52
2023-04-16T16:16:55.303Z,1.60
2023-04-16T16:19:23.214Z,1.70
2023-04-16T16:21:51.612Z,1.30
2023-04-16T16:24:19.584Z,1.40
2023-04-16T16:26:47.699Z,1.75
2023-04-16T16:29:15.824Z,1.48
2023-04-16T16:31:43.943Z,1.80
2023-04-16T16:34:19.882Z,1.60
2023-04-16T16:39:36.638Z,1.80
2023-04-16T16:42:06.447Z,1.67
2023-04-16T16:44:34.391Z,1.90
2023-04-16T16:47:02.576Z,1.50
2023-04-16T16:49:30.730Z,2.15
2023-04-16T16:51:58.787Z,1.75
2023-04-16T16:54:26.882Z,1.40
2023-04-16T16:56:54.999Z,1.63
2023-04-16T16:59:41.431Z,1.70
2023-04-16T17:02:09.499Z,1.48
2023-04-16T17:04:37.786Z,1.70
2023-04-16T17:07:06.048Z,1.45
2023-04-16T17:09:34.055Z,2.40
2023-04-16T17:12:02.126Z,1.50
2023-04-16T17:14:30.235Z,1.63
2023-04-16T17:17:16.865Z,1.48
2023-04-16T17:19:44.936Z,1.60
2023-04-16T17:22:13.222Z,1.08
2023-04-16T17:24:41.491Z,1.95
2023-04-16T17:27:09.608Z,2.72
2023-04-16T17:29:37.594Z,2.35
2023-04-16T17:32:06.114Z,1.95
2023-04-16T17:34:35.119Z,2.30
2023-04-16T17:37:03.256Z,1.35
2023-04-16T17:39:31.530Z,2.15
2023-04-16T17:42:01.522Z,1.30
2023-04-16T17:44:29.685Z,1.48
2023-04-16T17:46:57.757Z,1.60
2023-04-16T17:49:25.884Z,1.65
2023-04-16T17:51:54.423Z,2.05
2023-04-16T17:54:22.435Z,1.85
2023-04-16T17:56:50.400Z,1.83
2023-04-16T17:59:18.614Z,1.95
2023-04-16T18:01:46.802Z,1.92
2023-04-16T18:04:15.157Z,1.30
2023-04-16T18:06:43.512Z,2.08
2023-04-16T18:09:12.321Z,1.48
2023-04-16T18:11:40.537Z,1.67
2023-04-16T18:14:10.309Z,1.30
2023-04-16T18:16:38.651Z,1.65
2023-04-16T18:19:06.778Z,1.90
2023-04-16T18:21:35.705Z,1.85
2023-04-16T18:24:03.902Z,1.73
2023-04-16T18:26:35.681Z,1.77
2023-04-16T18:29:04.278Z,1.85
2023-04-16T18:31:32.365Z,1.55
2023-04-16T18:34:00.647Z,1.55
2023-04-16T18:36:28.829Z,1.50
2023-04-16T18:39:02.017Z,1.42
2023-04-16T18:41:31.537Z,2.08
2023-04-16T18:43:59.814Z,2.08
2023-04-16T18:46:28.007Z,1.83
2023-04-16T18:48:56.186Z,1.33
2023-04-16T18:51:24.201Z,1.58
2023-04-16T18:53:52.264Z,1.33
2023-04-16T18:56:20.445Z,1.70
2023-04-16T18:59:07.096Z,1.23
2023-04-16T19:01:35.235Z,1.85
2023-04-16T19:04:21.859Z,1.52
2023-04-16T19:06:50.146Z,1.88
2023-04-16T19:09:18.208Z,2.10
2023-04-16T19:11:47.665Z,1.95
2023-04-16T19:17:01.185Z,1.60
2023-04-16T19:19:29.338Z,2.00
2023-04-16T19:21:57.410Z,1.77
2023-04-16T19:24:25.761Z,1.88
2023-04-16T19:26:53.801Z,1.60
2023-04-16T19:29:22.101Z,1.58
2023-04-16T19:31:50.109Z,1.63
2023-04-16T19:34:18.184Z,1.50
2023-04-16T19:36:46.371Z,1.30
2023-04-16T19:39:33.507Z,1.60
2023-04-16T19:42:01.948Z,1.65
2023-04-16T19:44:30.184Z,1.80
2023-04-16T19:46:58.173Z,1.35
2023-04-16T19:49:34.612Z,1.75
2023-04-16T19:52:02.726Z,1.65
2023-04-16T19:54:33.860Z,2.42
2023-04-16T19:57:01.885Z,1.90
2023-04-16T19:59:32.394Z,2.08
2023-04-16T20:02:00.584Z,1.42
2023-04-16T20:04:28.857Z,1.63
2023-04-16T20:06:56.959Z,1.33
2023-04-16T20:09:25.704Z,1.73
2023-04-16T20:11:53.736Z,2.22
2023-04-16T20:14:21.805Z,1.55
2023-04-16T20:16:49.971Z,1.48
2023-04-16T20:19:20.770Z,1.52
2023-04-16T20:21:48.775Z,2.40
2023-04-16T20:24:16.800Z,1.75
2023-04-16T20:26:44.784Z,1.40
2023-04-16T20:29:13.087Z,1.58
2023-04-16T20:31:43.075Z,1.63
2023-04-16T20:36:58.259Z,1.38
2023-04-16T20:39:26.273Z,1.75
2023-04-16T20:41:56.941Z,1.77
2023-04-16T20:44:33.535Z,2.47
2023-04-16T20:47:01.762Z,1.52
2023-04-16T20:49:30.533Z,1.48
2023-04-16T20:51:58.547Z,1.92
2023-04-16T20:54:27.354Z,1.40
2023-04-16T20:56:56.124Z,1.98
2023-04-16T20:59:25.033Z,1.48
2023-04-16T21:01:53.360Z,1.30
2023-04-16T21:04:21.621Z,1.55
2023-04-16T21:07:08.741Z,1.55
2023-04-16T21:09:36.964Z,1.10
2023-04-16T21:12:05.254Z,2.20
2023-04-16T21:14:33.355Z,1.60
2023-04-16T21:17:01.454Z,1.58
2023-04-16T21:19:29.440Z,1.52
2023-04-16T21:21:57.463Z,1.88
2023-04-16T21:24:25.657Z,1.73
2023-04-16T21:26:53.787Z,1.50
2023-04-16T21:29:21.839Z,1.50
2023-04-16T21:31:49.852Z,1.50
2023-04-16T21:34:17.946Z,1.98
2023-04-16T21:36:46.059Z,1.80
2023-04-16T21:42:00.816Z,2.78
2023-04-16T21:44:28.860Z,1.80
2023-04-16T21:46:56.968Z,1.48
2023-04-16T21:49:25.033Z,1.70
2023-04-16T21:51:59.257Z,2.00
2023-04-16T21:54:27.353Z,1.38
2023-04-16T21:56:55.314Z,1.40
2023-04-16T21:59:23.610Z,1.40
2023-04-16T22:01:51.789Z,2.03
2023-04-16T22:07:12.107Z,1.88
2023-04-16T22:09:41.086Z,1.77
2023-04-16T22:12:12.266Z,1.65
2023-04-16T22:17:27.836Z,2.08
2023-04-16T22:20:15.054Z,1.63
2023-04-16T22:22:43.157Z,1.80
2023-04-16T22:25:11.847Z,1.60
2023-04-16T22:27:39.949Z,1.58
2023-04-16T22:30:08.690Z,2.15
2023-04-16T22:32:37.171Z,1.85
2023-04-16T22:35:05.949Z,1.40
2023-04-16T22:37:34.634Z,2.17
2023-04-16T22:40:21.262Z,1.75
2023-04-16T22:42:50.531Z,1.70
2023-04-16T22:45:18.664Z,1.65
2023-04-16T22:47:46.674Z,2.50
2023-04-16T22:50:15.148Z,1.80
2023-04-16T22:52:43.235Z,1.52
2023-04-16T22:55:11.293Z,1.48
2023-04-16T22:57:39.390Z,1.67
2023-04-16T23:00:10.266Z,1.73
2023-04-16T23:02:38.358Z,1.98
2023-04-16T23:05:06.764Z,1.40
2023-04-16T23:07:53.177Z,1.23
2023-04-16T23:10:21.158Z,2.03
2023-04-16T23:12:49.107Z,2.08
2023-04-16T23:15:17.670Z,1.55
2023-04-16T23:17:46.255Z,1.55
2023-04-16T23:20:14.523Z,1.63
2023-04-16T23:23:01.412Z,1.45
2023-04-16T23:25:29.631Z,1.50
2023-04-16T23:27:57.756Z,1.50
2023-04-16T23:30:25.750Z,1.58
2023-04-16T23:32:53.786Z,1.48
2023-04-16T23:35:40.558Z,1.33
2023-04-16T23:38:08.661Z,1.42
2023-04-16T23:40:36.585Z,1.38
2023-04-16T23:43:04.608Z,2.65
2023-04-16T23:45:32.634Z,2.08
2023-04-16T23:48:00.723Z,1.25
2023-04-16T23:50:28.832Z,1.65
2023-04-16T23:52:57.022Z,1.92
2023-04-16T23:55:25.425Z,1.42
2023-04-16T23:57:53.464Z,1.55
